Aeroporto :
LOGIN :

Iscrizione | Disclaimer

   EN    FR    IT 

 










Sommario :    VFR   VFR Marginale   IFR   IFR Intensivo   IFR Molto Intensivo
Visibilità : 
Base nubi : 
>= 8 km
>= 3000ft
5 / 8 km
1000 / 3000 ft
1500m / 5 km
500 / 1000 ft
800 / 1500m
200 / 500 ft
< 800m
< 200 ft
Simboli :   Temporali  Nebbia  Neve Forte  Precipitazioni Forti  Vento > 20 kt
SIGMETs :   Varie  Temporali  Ghiacco  Turbolenza  Onda orograficha  Ceneri Vulcaniche






- Altitudine del aeroporto : 1496 ft
- Codice IATA : SBZ


LRSB - Sibiu

ULTIMO METAR :
  • 190530Z 12004KT CAVOK 23/18 Q1019

METARs OBSOLETI :
  • 190500Z 11005KT CAVOK 21/18 Q1019
  • 190430Z 12003KT CAVOK 20/18 Q1019
  • 190400Z 13005KT CAVOK 20/18 Q1019
  • 190330Z 11004KT CAVOK 19/17 Q1019
  • 190230Z 09003KT 060V120 CAVOK 19/17 Q1019
  • 190200Z 00000KT CAVOK 19/17 Q1019
  • 190130Z 25001KT CAVOK 19/17 Q1019
  • 190100Z VRB02KT CAVOK 19/17 Q1019
  • 190030Z 26002KT CAVOK 20/17 Q1019

TAF TAF LRSB
Valido dal 19 a 00 ore il 20 a 00 ore UTC


182300Z 1900/2000 VRB04KT CAVOK
PROB40
TEMPO 1904/1907 5000 -TSRA SCT035CB
BECMG 1909/1911 SCT040CB
TEMPO 1911/1915 VRB20G35KT 3000 TSRA SCT020 BKN040CB
BECMG 1916/1918 FEW040



MetMap, La meteo Aeronautica in un colpo d'occhio ! - Copyright ORBIFLY Dicembre 2007 - Disclaimer

ORBIFLY MET'MAP TEAM :

Programmazione e sviluppo : Alexandra Zaïnal
Concezione : Baudouin d'Aumeries
Supporto tecnico e logistico : Manuel Goepfert
Aiuto : Marc-Olivier Méhu
Aiuto per la traduzione : Arnaldo La Scala




FONTI E CREDITI :

   NOAA